Time;durP1;ratioP1;P1;durP2;ratioP2;P2;SDS_P1;SDS_P2;PMS_P1;PMS_P2;Temp;Humidity;BMP_temperature;BMP_pressure;BME280_temperature;BME280_humidity;BME280_pressure;Samples;Min_cycle;Max_cycle;Signal;HPM_P1;HPM_P2
2023/03/24 00:01:28;;;;;;;10.10;5.00;;;11.40;99.90;;;;;;4989127;28;20100;-88
2023/03/24 00:03:54;;;;;;;11.20;5.20;;;11.40;99.90;;;;;;4993491;28;20096;-88
2023/03/24 00:06:25;;;;;;;10.40;5.17;;;11.40;99.90;;;;;;4995187;28;20435;-82
2023/03/24 00:08:53;;;;;;;10.63;5.27;;;11.40;99.90;;;;;;4992125;28;20486;-82
2023/03/24 00:11:21;;;;;;;7.10;4.60;;;11.40;99.90;;;;;;5010823;28;20042;-82
2023/03/24 00:13:57;;;;;;;9.47;5.63;;;11.30;99.90;;;;;;5009436;28;20042;-84
2023/03/24 00:16:25;;;;;;;11.30;5.70;;;11.40;99.90;;;;;;4978400;28;20046;-86
2023/03/24 00:18:52;;;;;;;11.10;5.13;;;11.40;99.90;;;;;;5013049;28;20042;-83
2023/03/24 00:21:54;;;;;;;10.73;5.67;;;11.30;99.90;;;;;;4992316;28;20046;-85
2023/03/24 00:24:20;;;;;;;8.53;5.10;;;11.30;99.90;;;;;;4986358;28;20078;-84
2023/03/24 00:26:50;;;;;;;10.33;5.17;;;11.30;99.90;;;;;;4997459;28;20304;-84
2023/03/24 00:29:24;;;;;;;10.57;5.47;;;11.30;99.90;;;;;;4966680;28;20058;-86
2023/03/24 00:32:14;;;;;;;8.20;4.93;;;11.30;99.90;;;;;;4992856;28;20437;-86
2023/03/24 00:34:48;;;;;;;10.13;5.22;;;11.30;99.90;;;;;;4998262;28;20054;-81
2023/03/24 00:37:16;;;;;;;9.23;5.23;;;11.30;99.90;;;;;;5007219;28;20053;-82
2023/03/24 00:39:42;;;;;;;12.17;5.83;;;11.30;99.90;;;;;;4986819;28;20384;-82
2023/03/24 00:42:08;;;;;;;9.40;4.97;;;11.30;99.90;;;;;;4992461;28;20030;-82
2023/03/24 00:44:36;;;;;;;10.53;4.83;;;11.30;99.90;;;;;;4998522;28;20460;-82
2023/03/24 00:47:09;;;;;;;9.27;5.50;;;11.30;99.90;;;;;;4991903;28;20088;-83
2023/03/24 00:49:43;;;;;;;12.33;5.40;;;11.20;99.90;;;;;;4998625;28;20052;-86
2023/03/24 00:52:19;;;;;;;8.80;5.17;;;11.20;99.90;;;;;;5003308;28;20046;-85
2023/03/24 00:54:58;;;;;;;11.38;4.88;;;11.20;99.90;;;;;;4981240;28;20528;-82
2023/03/24 00:57:33;;;;;;;10.00;5.17;;;11.20;99.90;;;;;;4995300;28;20049;-81
2023/03/24 01:00:11;;;;;;;10.10;5.00;;;11.20;99.90;;;;;;5012758;28;20123;-82
2023/03/24 01:02:37;;;;;;;8.50;5.27;;;11.20;99.90;;;;;;4996000;28;20558;-82
2023/03/24 01:05:03;;;;;;;8.00;4.93;;;11.20;99.90;;;;;;4980844;28;20041;-82
2023/03/24 01:07:29;;;;;;;8.17;5.10;;;11.20;99.90;;;;;;4994030;28;20045;-82
2023/03/24 01:09:56;;;;;;;8.50;5.27;;;11.20;99.90;;;;;;4980915;28;20401;-82
2023/03/24 01:13:18;;;;;;;10.27;4.90;;;11.20;99.90;;;;;;5014532;28;20497;-82
2023/03/24 01:16:03;;;;;;;7.90;4.80;;;11.20;99.90;;;;;;5000123;28;20048;-82
2023/03/24 01:18:30;;;;;;;8.40;5.30;;;11.20;99.90;;;;;;5010620;28;20409;-82
2023/03/24 01:21:18;;;;;;;10.63;6.20;;;11.20;99.90;;;;;;5030881;28;20128;-82
2023/03/24 01:23:44;;;;;;;9.93;5.30;;;11.20;99.90;;;;;;4996748;28;20740;-82
2023/03/24 01:26:16;;;;;;;9.40;5.20;;;11.20;99.90;;;;;;4999012;28;20069;-82
2023/03/24 01:28:45;;;;;;;6.37;4.87;;;11.20;99.90;;;;;;4975823;28;20042;-81
2023/03/24 01:31:13;;;;;;;;;;;11.20;99.90;;;;;;4998771;28;20106;-82
2023/03/24 01:33:42;;;;;;;10.63;5.13;;;11.20;99.90;;;;;;4988691;28;20412;-83
2023/03/24 01:36:09;;;;;;;8.90;5.30;;;11.10;99.90;;;;;;4988399;28;20042;-82
2023/03/24 01:38:40;;;;;;;7.70;4.97;;;11.20;99.90;;;;;;5011921;28;20042;-82
2023/03/24 01:41:07;;;;;;;10.03;5.10;;;11.20;99.90;;;;;;5004515;28;20052;-82
2023/03/24 01:43:34;;;;;;;7.83;5.07;;;11.20;99.90;;;;;;4990813;28;20157;-81
2023/03/24 01:46:20;;;;;;;9.77;5.40;;;11.20;99.90;;;;;;5003953;28;20056;-83
2023/03/24 01:49:07;;;;;;;7.57;5.07;;;11.20;99.90;;;;;;5007471;28;20093;-83
2023/03/24 01:51:37;;;;;;;7.83;5.23;;;11.20;99.90;;;;;;4993707;28;20073;-82
2023/03/24 01:54:09;;;;;;;10.00;5.07;;;11.20;99.90;;;;;;4992607;28;20092;-82
2023/03/24 01:56:38;;;;;;;9.60;5.05;;;11.20;99.90;;;;;;5005144;28;20042;-82
2023/03/24 01:59:10;;;;;;;10.47;5.53;;;11.30;99.90;;;;;;4988400;28;20026;-81
2023/03/24 02:01:37;;;;;;;5.18;4.57;;;11.30;99.90;;;;;;5003991;28;20045;-82
2023/03/24 02:04:05;;;;;;;10.17;4.80;;;11.20;99.90;;;;;;4977027;28;20401;-82
2023/03/24 02:06:39;;;;;;;7.60;4.80;;;11.30;99.90;;;;;;4988296;28;20045;-85
2023/03/24 02:09:07;;;;;;;7.53;4.67;;;11.30;99.90;;;;;;4993104;28;20106;-85
2023/03/24 02:11:36;;;;;;;8.53;5.10;;;11.30;99.90;;;;;;4979393;28;20050;-86
2023/03/24 02:14:04;;;;;;;6.93;4.77;;;11.30;99.90;;;;;;4995572;28;20044;-85
2023/03/24 02:17:02;;;;;;;9.00;5.40;;;11.30;99.90;;;;;;4995443;28;20112;-85
2023/03/24 02:19:49;;;;;;;6.73;4.80;;;11.30;99.90;;;;;;4962581;28;20080;-82
2023/03/24 02:22:21;;;;;;;8.73;5.43;;;11.30;99.90;;;;;;4991405;28;20046;-88
2023/03/24 02:25:15;;;;;;;6.95;4.82;;;11.30;99.90;;;;;;4992184;28;20072;-85
2023/03/24 02:28:02;;;;;;;6.83;5.20;;;11.40;99.90;;;;;;5008478;28;20541;-86
2023/03/24 02:30:46;;;;;;;7.97;5.17;;;11.40;99.90;;;;;;4989414;28;20046;-85
2023/03/24 02:33:32;;;;;;;9.20;5.17;;;11.40;99.90;;;;;;4993084;28;20050;-82
2023/03/24 02:36:10;;;;;;;7.57;5.10;;;11.40;99.90;;;;;;4991963;28;20133;-82
2023/03/24 02:38:47;;;;;;;7.07;5.10;;;11.40;99.90;;;;;;5005749;28;20045;-86
2023/03/24 02:41:29;;;;;;;5.80;5.07;;;11.50;99.90;;;;;;5008730;28;20623;-86
2023/03/24 02:44:34;;;;;;;;;;;11.40;99.90;;;;;;4992288;28;20046;-82
2023/03/24 02:47:04;;;;;;;7.77;4.87;;;11.40;99.90;;;;;;4931178;29;19918;-82
2023/03/24 02:49:37;;;;;;;6.97;5.33;;;11.40;99.90;;;;;;4931967;29;20142;-83
2023/03/24 02:52:32;;;;;;;8.37;5.10;;;11.40;99.90;;;;;;4963836;28;20066;-88
2023/03/24 02:55:27;;;;;;;9.77;5.37;;;11.50;99.90;;;;;;4976745;28;20058;-82
2023/03/24 02:58:24;;;;;;;6.40;5.40;;;11.50;99.90;;;;;;5004093;28;20045;-81
2023/03/24 03:01:24;;;;;;;6.45;5.20;;;11.50;99.90;;;;;;4998922;28;20053;-82
2023/03/24 03:03:54;;;;;;;6.43;5.30;;;11.50;99.90;;;;;;4989443;28;20108;-84
2023/03/24 03:06:31;;;;;;;8.30;5.17;;;11.50;99.90;;;;;;4993298;28;20794;-82
2023/03/24 03:09:08;;;;;;;8.33;5.10;;;11.50;99.90;;;;;;4983000;28;20042;-83
2023/03/24 03:11:45;;;;;;;6.70;5.57;;;11.50;99.90;;;;;;5008969;28;20042;-86
2023/03/24 03:14:48;;;;;;;7.03;5.20;;;11.50;99.90;;;;;;4990077;28;20590;-84
2023/03/24 03:17:54;;;;;;;6.68;5.07;;;11.50;99.90;;;;;;4964833;28;20050;-84
2023/03/24 03:20:23;;;;;;;7.80;5.73;;;11.50;99.90;;;;;;4989664;28;20060;-82
2023/03/24 03:23:12;;;;;;;5.80;5.10;;;11.50;99.90;;;;;;4987479;28;20029;-86
2023/03/24 03:26:22;;;;;;;9.45;5.55;;;11.60;99.90;;;;;;4991292;28;20076;-87
2023/03/24 03:29:20;;;;;;;6.70;5.37;;;11.60;99.90;;;;;;4995915;28;20118;-82
2023/03/24 03:32:06;;;;;;;7.22;5.40;;;11.60;99.90;;;;;;4974844;28;20116;-82
2023/03/24 03:34:55;;;;;;;7.07;5.40;;;11.60;99.90;;;;;;4986184;28;20046;-80
2023/03/24 03:37:50;;;;;;;6.78;5.43;;;11.60;99.90;;;;;;4988599;28;20061;-82
2023/03/24 03:40:23;;;;;;;7.17;5.67;;;11.60;99.90;;;;;;4989877;28;20553;-84
2023/03/24 03:42:51;;;;;;;6.25;5.43;;;11.60;99.90;;;;;;4974036;28;20069;-83
2023/03/24 03:45:17;;;;;;;6.40;5.53;;;11.60;99.90;;;;;;4957399;28;20556;-86
2023/03/24 03:47:45;;;;;;;6.30;5.27;;;11.70;99.90;;;;;;4971318;28;20081;-82
2023/03/24 03:50:14;;;;;;;7.28;5.38;;;11.70;99.90;;;;;;5006172;28;20126;-82
2023/03/24 03:52:43;;;;;;;6.57;4.80;;;11.70;99.90;;;;;;4990399;28;20074;-83
2023/03/24 03:55:11;;;;;;;7.77;4.87;;;11.70;99.90;;;;;;4988927;28;20114;-83
2023/03/24 03:57:37;;;;;;;4.03;3.47;;;11.70;99.90;;;;;;4984422;28;20417;-83
2023/03/24 04:00:14;;;;;;;4.10;3.53;;;11.70;99.90;;;;;;4952506;28;20042;-86
2023/03/24 04:03:24;;;;;;;3.13;2.67;;;11.70;99.90;;;;;;4983109;28;20042;-85
2023/03/24 04:06:14;;;;;;;7.07;3.50;;;11.70;99.90;;;;;;4912224;29;20048;-82
2023/03/24 04:08:51;;;;;;;3.90;2.78;;;11.60;99.90;;;;;;4881133;29;20940;-83
2023/03/24 04:11:48;;;;;;;3.63;2.95;;;11.60;99.90;;;;;;4945544;28;20042;-83
2023/03/24 04:14:40;;;;;;;6.33;2.93;;;11.50;99.90;;;;;;4967059;28;20049;-84
2023/03/24 04:17:35;;;;;;;3.70;2.15;;;11.40;99.90;;;;;;4989912;28;20042;-85
2023/03/24 04:20:13;;;;;;;4.60;2.57;;;11.30;99.90;;;;;;4968444;28;20133;-82
2023/03/24 04:23:08;;;;;;;3.83;2.03;;;11.20;99.90;;;;;;4971058;28;20073;-84
2023/03/24 04:26:00;;;;;;;4.50;2.10;;;11.10;99.90;;;;;;4972802;28;20050;-83
2023/03/24 04:28:36;;;;;;;5.07;2.20;;;11.00;99.90;;;;;;4971637;28;20526;-81
2023/03/24 04:31:24;;;;;;;4.43;2.20;;;11.00;99.90;;;;;;4966143;28;20050;-81
2023/03/24 04:34:03;;;;;;;3.70;2.23;;;11.00;99.90;;;;;;4981150;28;20104;-83
2023/03/24 04:36:41;;;;;;;3.97;2.17;;;10.90;99.90;;;;;;5001589;28;20549;-83
2023/03/24 04:39:13;;;;;;;5.73;2.57;;;10.90;99.90;;;;;;4987570;28;20398;-82
2023/03/24 04:41:42;;;;;;;5.97;2.57;;;10.90;99.90;;;;;;4990904;28;20049;-82
2023/03/24 04:44:09;;;;;;;4.67;2.33;;;10.80;99.90;;;;;;4973868;28;20050;-83
2023/03/24 04:46:36;;;;;;;7.57;2.87;;;10.80;99.90;;;;;;4988905;28;20070;-83
2023/03/24 04:49:03;;;;;;;8.50;2.50;;;10.80;99.90;;;;;;4991305;28;20045;-84
2023/03/24 04:51:30;;;;;;;7.40;2.50;;;10.70;99.90;;;;;;4973900;28;20045;-82
2023/03/24 04:53:56;;;;;;;5.93;2.60;;;10.70;99.90;;;;;;4988316;28;20114;-82
2023/03/24 04:56:47;;;;;;;4.53;2.20;;;10.60;99.90;;;;;;4978619;28;20038;-83
2023/03/24 04:59:14;;;;;;;8.07;2.67;;;10.60;99.90;;;;;;5001668;28;20070;-83
2023/03/24 05:01:48;;;;;;;7.70;2.27;;;10.60;99.90;;;;;;5012299;28;20113;-83
2023/03/24 05:04:21;;;;;;;5.27;2.13;;;10.50;99.90;;;;;;4991850;28;20503;-82
2023/03/24 05:06:48;;;;;;;6.17;2.10;;;10.50;99.90;;;;;;4993933;28;20056;-81
2023/03/24 05:09:16;;;;;;;9.80;2.80;;;10.50;99.90;;;;;;5007146;28;20042;-81
2023/03/24 05:11:43;;;;;;;9.93;3.10;;;10.40;99.90;;;;;;5010968;28;20442;-87
2023/03/24 05:14:09;;;;;;;6.60;2.83;;;10.40;99.90;;;;;;4989795;28;20436;-80
2023/03/24 05:16:35;;;;;;;6.60;2.70;;;10.40;99.90;;;;;;5005387;28;20046;-82
2023/03/24 05:19:01;;;;;;;7.67;2.63;;;10.40;99.90;;;;;;4992560;28;20042;-83
2023/03/24 05:21:27;;;;;;;10.60;2.70;;;10.40;99.90;;;;;;4956122;28;20087;-82
2023/03/24 05:23:53;;;;;;;9.53;3.03;;;10.40;99.90;;;;;;4970716;28;20417;-83
2023/03/24 05:26:19;;;;;;;6.93;2.80;;;10.40;99.90;;;;;;4989051;28;20046;-82
2023/03/24 05:28:45;;;;;;;7.47;3.10;;;10.30;99.90;;;;;;4977192;28;20445;-82
2023/03/24 05:31:11;;;;;;;11.20;3.10;;;10.30;99.90;;;;;;4964452;28;20034;-82
2023/03/24 05:33:40;;;;;;;7.90;3.07;;;10.30;99.90;;;;;;4991221;28;20068;-83
2023/03/24 05:36:07;;;;;;;6.90;3.10;;;10.20;99.90;;;;;;4979392;28;20038;-82
2023/03/24 05:38:33;;;;;;;9.87;3.10;;;10.20;99.90;;;;;;4978164;28;20046;-82
2023/03/24 05:40:59;;;;;;;12.23;4.03;;;10.20;99.90;;;;;;4973001;28;20034;-83
2023/03/24 05:43:31;;;;;;;11.57;3.40;;;10.20;99.90;;;;;;4975134;28;20042;-82
2023/03/24 05:45:59;;;;;;;11.63;3.28;;;10.20;99.90;;;;;;4979493;28;20097;-82
2023/03/24 05:48:26;;;;;;;11.33;4.07;;;10.20;99.90;;;;;;4979068;28;20525;-82
2023/03/24 05:50:52;;;;;;;11.27;3.27;;;10.20;99.90;;;;;;5006699;28;20034;-83
2023/03/24 05:53:18;;;;;;;8.60;3.60;;;10.20;99.90;;;;;;4992854;28;20048;-82
2023/03/24 05:55:45;;;;;;;15.23;4.00;;;10.20;99.90;;;;;;4973489;28;20070;-82
2023/03/24 05:58:11;;;;;;;13.47;3.43;;;10.10;99.90;;;;;;4989747;28;20089;-82
2023/03/24 06:00:40;;;;;;;15.77;4.10;;;10.10;99.90;;;;;;4974026;28;20041;-82
2023/03/24 06:03:06;;;;;;;14.40;3.77;;;10.10;99.90;;;;;;5007349;28;20458;-83
2023/03/24 06:05:31;;;;;;;10.53;3.20;;;10.10;99.90;;;;;;4969586;28;20546;-83
2023/03/24 06:08:00;;;;;;;13.20;3.47;;;10.00;99.90;;;;;;4976219;28;20076;-82
2023/03/24 06:10:26;;;;;;;8.87;3.20;;;10.00;99.90;;;;;;4982332;28;20042;-82
2023/03/24 06:12:55;;;;;;;10.90;2.80;;;10.00;99.90;;;;;;4995728;28;20061;-82
2023/03/24 06:15:26;;;;;;;10.23;2.83;;;10.00;99.90;;;;;;4981088;28;20084;-83
2023/03/24 06:17:54;;;;;;;8.47;2.70;;;10.00;99.90;;;;;;4970053;28;20046;-83
2023/03/24 06:20:20;;;;;;;8.00;2.43;;;10.00;99.90;;;;;;4975909;28;20085;-81
2023/03/24 06:22:47;;;;;;;9.77;2.70;;;10.00;99.90;;;;;;4976739;28;20042;-84
2023/03/24 06:25:15;;;;;;;11.83;3.00;;;10.00;99.90;;;;;;4970775;28;20037;-82
2023/03/24 06:27:45;;;;;;;7.40;2.40;;;10.00;99.90;;;;;;4989699;28;20083;-84
2023/03/24 06:30:14;;;;;;;16.27;3.03;;;10.00;99.90;;;;;;4986357;28;20049;-83
2023/03/24 06:32:45;;;;;;;9.13;2.43;;;10.00;99.90;;;;;;4989147;28;20053;-82
2023/03/24 06:35:15;;;;;;;6.90;2.50;;;10.00;99.90;;;;;;5003317;28;20050;-84
2023/03/24 06:37:42;;;;;;;8.93;2.70;;;10.10;99.90;;;;;;5005713;28;20555;-83
2023/03/24 06:40:16;;;;;;;8.47;2.50;;;10.10;99.90;;;;;;5002661;28;20046;-82
2023/03/24 06:42:42;;;;;;;11.13;2.73;;;10.10;99.90;;;;;;4964755;28;20117;-83
2023/03/24 06:45:08;;;;;;;10.20;2.73;;;10.10;99.90;;;;;;4954135;28;20077;-82
2023/03/24 06:47:36;;;;;;;10.17;2.73;;;10.10;99.90;;;;;;4976042;28;20042;-84
2023/03/24 06:50:03;;;;;;;8.17;2.70;;;10.10;99.90;;;;;;4987110;28;20080;-84
2023/03/24 06:52:29;;;;;;;8.07;2.50;;;10.20;99.90;;;;;;5004336;28;20041;-82
2023/03/24 06:54:56;;;;;;;10.87;2.83;;;10.20;99.90;;;;;;4983862;28;20100;-82
2023/03/24 06:57:22;;;;;;;11.70;3.17;;;10.20;99.90;;;;;;4993520;28;20093;-82
2023/03/24 06:59:51;;;;;;;11.40;2.63;;;10.20;99.90;;;;;;4953108;28;20505;-82
2023/03/24 07:02:17;;;;;;;10.67;2.70;;;10.20;99.90;;;;;;4952963;28;20566;-82
2023/03/24 07:04:44;;;;;;;9.17;2.53;;;10.20;99.90;;;;;;4968903;28;20057;-82
2023/03/24 07:07:11;;;;;;;13.47;2.73;;;10.30;99.90;;;;;;4993078;28;20808;-82
2023/03/24 07:09:38;;;;;;;9.20;2.63;;;10.30;99.90;;;;;;4989683;28;20045;-83
2023/03/24 07:12:05;;;;;;;5.53;2.30;;;10.30;99.90;;;;;;4978226;28;20050;-83
2023/03/24 07:14:31;;;;;;;12.87;3.43;;;10.40;99.90;;;;;;4976280;28;20063;-82
2023/03/24 07:16:58;;;;;;;10.70;2.67;;;10.40;99.90;;;;;;4970792;28;20049;-82
2023/03/24 07:19:24;;;;;;;8.87;2.67;;;10.40;99.90;;;;;;5003294;28;20528;-83
2023/03/24 07:21:56;;;;;;;12.93;3.20;;;10.40;99.90;;;;;;5004945;28;20065;-82
2023/03/24 07:24:22;;;;;;;;;;;10.40;99.90;;;;;;4951831;28;20042;-82
2023/03/24 07:26:48;;;;;;;11.50;2.73;;;10.40;99.90;;;;;;4995832;28;20630;-82
2023/03/24 07:29:14;;;;;;;10.53;2.70;;;10.40;99.90;;;;;;4949917;28;20181;-83
2023/03/24 07:31:47;;;;;;;8.67;2.87;;;10.50;99.90;;;;;;4965153;28;20596;-82
2023/03/24 07:35:29;;;;;;;10.23;3.10;;;10.50;99.90;;;;;;4961290;28;20545;-82
2023/03/24 07:37:59;;;;;;;9.80;2.80;;;10.50;99.90;;;;;;4952177;28;20612;-83
2023/03/24 07:40:33;;;;;;;12.70;3.00;;;10.50;99.90;;;;;;4944661;28;20078;-83
2023/03/24 07:43:01;;;;;;;11.43;3.03;;;10.60;99.90;;;;;;4936908;28;20043;-83
2023/03/24 07:45:27;;;;;;;9.27;3.27;;;10.70;99.90;;;;;;4946412;28;20141;-83
2023/03/24 07:48:00;;;;;;;13.63;2.97;;;10.70;99.90;;;;;;4944956;28;20042;-83
2023/03/24 07:50:37;;;;;;;15.03;3.57;;;10.70;99.90;;;;;;4978322;28;20043;-83
2023/03/24 07:53:04;;;;;;;14.77;3.00;;;10.70;99.90;;;;;;4947553;28;20048;-82
2023/03/24 07:55:37;;;;;;;17.73;4.23;;;10.70;99.90;;;;;;4945260;28;20050;-83
2023/03/24 07:58:08;;;;;;;10.87;3.50;;;10.70;99.90;;;;;;4947794;28;20042;-83
2023/03/24 08:00:37;;;;;;;10.90;3.03;;;10.70;99.90;;;;;;4976133;28;20169;-82
2023/03/24 08:03:12;;;;;;;14.50;3.47;;;10.80;99.90;;;;;;4981772;28;20069;-82
2023/03/24 08:05:43;;;;;;;15.10;3.27;;;10.80;99.90;;;;;;4967589;28;20084;-83
2023/03/24 08:08:23;;;;;;;15.63;3.33;;;10.90;99.90;;;;;;4978707;28;20536;-84
2023/03/24 08:10:52;;;;;;;10.73;3.23;;;11.00;99.90;;;;;;4977577;28;20033;-83
2023/03/24 08:13:18;;;;;;;15.90;3.30;;;11.00;99.90;;;;;;4961824;28;20030;-82
2023/03/24 08:15:47;;;;;;;14.10;3.50;;;11.00;99.90;;;;;;4997725;28;20104;-82
2023/03/24 08:18:13;;;;;;;13.00;3.90;;;11.00;99.90;;;;;;4978410;28;20092;-83
2023/03/24 08:20:39;;;;;;;15.20;4.00;;;11.00;99.90;;;;;;4995573;28;20125;-84
2023/03/24 08:23:11;;;;;;;17.40;4.17;;;11.00;99.90;;;;;;4976124;28;20386;-82
2023/03/24 08:26:02;;;;;;;13.38;3.88;;;11.10;99.90;;;;;;4979793;28;20156;-82
2023/03/24 08:29:03;;;;;;;21.67;4.43;;;11.30;99.90;;;;;;4988296;28;20053;-83
2023/03/24 08:31:36;;;;;;;17.50;4.22;;;11.40;99.90;;;;;;4984815;28;20045;-82
2023/03/24 08:34:48;;;;;;;16.50;4.20;;;11.50;99.90;;;;;;4994607;28;20046;-83
2023/03/24 08:37:30;;;;;;;21.02;4.53;;;11.70;99.90;;;;;;4988463;28;20133;-82
2023/03/24 08:40:04;;;;;;;17.00;4.50;;;11.90;99.90;;;;;;4984030;28;20050;-83
2023/03/24 08:42:42;;;;;;;16.00;4.67;;;12.00;99.90;;;;;;4983780;28;20040;-83
2023/03/24 08:45:33;;;;;;;17.90;4.30;;;12.00;99.90;;;;;;5000738;28;20050;-83
2023/03/24 08:48:23;;;;;;;17.10;3.97;;;11.80;99.90;;;;;;4982838;28;20041;-83
2023/03/24 08:51:08;;;;;;;16.85;4.25;;;11.80;99.90;;;;;;4984124;28;20042;-82
2023/03/24 08:53:33;;;;;;;20.95;4.68;;;11.80;99.90;;;;;;4985892;28;20502;-82
2023/03/24 08:56:02;;;;;;;11.80;3.53;;;11.80;99.90;;;;;;4999829;28;20524;-82
2023/03/24 08:58:49;;;;;;;15.27;3.40;;;11.70;99.90;;;;;;4996325;28;20124;-82
2023/03/24 09:01:19;;;;;;;14.95;3.47;;;11.70;99.90;;;;;;4980149;28;20167;-83
2023/03/24 09:03:51;;;;;;;14.13;3.30;;;11.70;99.90;;;;;;4997125;28;20096;-82
2023/03/24 09:06:16;;;;;;;;;;;11.60;99.90;;;;;;4978498;28;20125;-83
2023/03/24 09:09:02;;;;;;;14.00;4.15;;;11.50;99.90;;;;;;4983882;28;19918;-83
2023/03/24 09:11:34;;;;;;;19.37;4.33;;;11.50;99.90;;;;;;4998623;28;20034;-84
2023/03/24 09:13:59;;;;;;;11.73;3.28;;;11.40;99.90;;;;;;4995342;28;20081;-83
2023/03/24 09:16:39;;;;;;;15.88;3.85;;;11.30;99.90;;;;;;4996715;28;20050;-84
2023/03/24 09:19:06;;;;;;;11.80;3.37;;;11.20;99.90;;;;;;4958742;28;20437;-82
2023/03/24 09:21:58;;;;;;;16.55;3.40;;;11.10;99.90;;;;;;4958720;28;20058;-82
2023/03/24 09:24:24;;;;;;;15.27;3.50;;;11.10;99.90;;;;;;4937078;28;20049;-84
2023/03/24 09:26:52;;;;;;;14.02;3.10;;;11.20;99.90;;;;;;4937495;28;20449;-85
2023/03/24 09:29:18;;;;;;;12.27;3.53;;;11.20;99.90;;;;;;4958513;28;20042;-84
2023/03/24 09:31:49;;;;;;;14.83;3.53;;;11.30;99.90;;;;;;4912276;28;20042;-84
2023/03/24 09:34:22;;;;;;;13.45;3.10;;;11.50;99.90;;;;;;4960985;28;20063;-84
2023/03/24 09:36:52;;;;;;;13.73;3.20;;;11.70;99.90;;;;;;4909890;28;20478;-84
2023/03/24 09:39:20;;;;;;;;;;;12.00;99.90;;;;;;4945438;28;20435;-83
2023/03/24 09:41:58;;;;;;;12.60;2.73;;;12.10;99.90;;;;;;4922505;28;19932;-86
2023/03/24 09:44:42;;;;;;;13.23;3.40;;;12.20;99.90;;;;;;4941096;28;20070;-83
2023/03/24 09:47:45;;;;;;;12.57;3.47;;;12.40;99.90;;;;;;4941118;28;20042;-83
2023/03/24 09:50:28;;;;;;;17.00;3.45;;;12.40;99.90;;;;;;4965962;28;20170;-84
2023/03/24 09:53:04;;;;;;;10.73;3.10;;;12.50;99.90;;;;;;4994739;28;20053;-85
2023/03/24 09:55:36;;;;;;;11.05;3.13;;;12.70;99.90;;;;;;4985130;28;20444;-84
2023/03/24 09:58:32;;;;;;;11.85;3.00;;;12.80;99.90;;;;;;4937617;28;20503;-85
2023/03/24 10:01:01;;;;;;;7.90;3.13;;;13.00;99.90;;;;;;4929162;28;20050;-85
2023/03/24 10:03:30;;;;;;;11.90;2.95;;;13.20;99.90;;;;;;4914877;28;20137;-85
2023/03/24 10:06:07;;;;;;;12.27;3.03;;;13.30;99.90;;;;;;4946268;28;20050;-84
2023/03/24 10:08:47;;;;;;;11.98;3.00;;;13.50;99.90;;;;;;4923564;28;20506;-84
2023/03/24 10:11:47;;;;;;;17.65;3.60;;;13.50;99.90;;;;;;4929012;28;20070;-84
2023/03/24 10:14:28;;;;;;;14.07;3.90;;;13.50;99.90;;;;;;4937947;28;20105;-84
2023/03/24 10:17:22;;;;;;;16.33;4.07;;;13.50;99.90;;;;;;4960430;28;20059;-83
2023/03/24 10:20:06;;;;;;;10.88;3.47;;;13.60;99.90;;;;;;4929683;28;20043;-84
2023/03/24 10:22:56;;;;;;;13.27;3.00;;;13.70;99.90;;;;;;4928994;28;20043;-84
2023/03/24 10:25:41;;;;;;;13.52;3.42;;;13.70;99.90;;;;;;4929032;28;20046;-85
2023/03/24 10:28:48;;;;;;;14.40;3.92;;;13.80;99.90;;;;;;4947813;28;20142;-84
2023/03/24 10:31:23;;;;;;;11.82;3.63;;;13.90;99.90;;;;;;4982789;28;20081;-84
2023/03/24 10:33:55;;;;;;;12.40;3.45;;;14.00;99.90;;;;;;4980064;28;20077;-84
2023/03/24 10:36:26;;;;;;;11.43;2.95;;;14.00;99.90;;;;;;4982534;28;20054;-84
2023/03/24 10:39:19;;;;;;;16.27;3.22;;;14.00;99.90;;;;;;4979963;28;20050;-84
2023/03/24 10:41:52;;;;;;;9.60;3.42;;;13.80;99.90;;;;;;4976938;28;20125;-82
2023/03/24 10:44:25;;;;;;;11.50;2.70;;;13.60;99.90;;;;;;4952700;28;20041;-84
2023/03/24 10:47:20;;;;;;;8.65;2.50;;;13.40;99.90;;;;;;4959199;28;20050;-83
2023/03/24 10:50:37;;;;;;;10.68;2.97;;;13.20;99.90;;;;;;4996649;28;20081;-84
2023/03/24 10:53:21;;;;;;;11.45;3.25;;;13.10;99.90;;;;;;4918275;29;20539;-86
2023/03/24 10:55:50;;;;;;;12.50;2.63;;;13.10;99.90;;;;;;4933982;29;20466;-85
2023/03/24 10:59:05;;;;;;;10.70;2.75;;;13.20;99.90;;;;;;4886378;29;20067;-87
2023/03/24 11:01:44;;;;;;;11.80;2.38;;;13.30;99.90;;;;;;4972353;28;20141;-87
2023/03/24 11:04:19;;;;;;;12.75;3.03;;;13.30;99.90;;;;;;4995425;28;20034;-84
2023/03/24 11:07:03;;;;;;;12.27;3.15;;;13.50;99.90;;;;;;4980874;28;20054;-84
2023/03/24 11:09:41;;;;;;;9.68;2.83;;;13.70;99.90;;;;;;4980412;28;20059;-84
2023/03/24 11:12:25;;;;;;;9.27;2.30;;;13.80;99.90;;;;;;4978733;28;20447;-84
2023/03/24 11:15:20;;;;;;;11.10;2.78;;;13.90;99.90;;;;;;4984529;28;20045;-86
2023/03/24 11:17:55;;;;;;;10.18;2.50;;;14.00;99.90;;;;;;4995252;28;20057;-85
2023/03/24 11:20:40;;;;;;;10.25;3.03;;;14.10;99.90;;;;;;4997924;28;20046;-86
2023/03/24 11:23:16;;;;;;;9.98;2.80;;;14.10;99.90;;;;;;4979363;28;20056;-88
2023/03/24 11:26:07;;;;;;;10.95;2.55;;;14.10;99.90;;;;;;4992986;28;20104;-86
2023/03/24 11:28:38;;;;;;;7.70;2.22;;;14.20;99.90;;;;;;4999321;28;20055;-87
2023/03/24 11:31:08;;;;;;;8.40;2.42;;;14.20;99.90;;;;;;4979569;28;20057;-84
2023/03/24 11:33:44;;;;;;;13.02;2.90;;;14.10;99.90;;;;;;4981815;28;20056;-84
2023/03/24 11:36:39;;;;;;;7.78;2.40;;;14.10;99.90;;;;;;4984677;28;20069;-85
2023/03/24 11:39:25;;;;;;;10.52;2.63;;;14.10;99.90;;;;;;4979296;28;20080;-86
2023/03/24 11:42:26;;;;;;;9.32;2.22;;;14.10;99.90;;;;;;4996247;28;20394;-83
2023/03/24 11:44:55;;;;;;;6.90;1.98;;;14.20;99.90;;;;;;4961281;28;20077;-86
2023/03/24 11:47:39;;;;;;;8.98;2.40;;;14.20;99.90;;;;;;4994922;28;20057;-89
2023/03/24 11:50:08;;;;;;;6.88;2.33;;;14.30;99.90;;;;;;4970655;28;20057;-87
2023/03/24 11:52:42;;;;;;;5.45;2.08;;;14.30;99.90;;;;;;4991601;28;20054;-86
2023/03/24 11:55:37;;;;;;;10.55;2.70;;;14.40;99.90;;;;;;5008523;28;20126;-86
2023/03/24 11:58:22;;;;;;;12.13;2.65;;;14.50;99.90;;;;;;4995113;28;20038;-84
2023/03/24 12:01:18;;;;;;;9.93;2.20;;;14.60;99.90;;;;;;5008463;28;20050;-86
2023/03/24 12:03:45;;;;;;;10.85;2.28;;;14.50;99.90;;;;;;5016892;28;20037;-84
2023/03/24 12:06:27;;;;;;;11.93;2.78;;;14.60;99.90;;;;;;4987835;28;20062;-86
2023/03/24 12:09:08;;;;;;;8.63;2.63;;;14.50;99.90;;;;;;5005841;28;20060;-85
2023/03/24 12:11:56;;;;;;;10.93;2.70;;;14.60;99.90;;;;;;4990771;28;20046;-84
2023/03/24 12:14:41;;;;;;;11.25;2.53;;;14.80;99.90;;;;;;5005524;28;20127;-87
2023/03/24 12:17:13;;;;;;;14.10;3.17;;;14.90;99.90;;;;;;4979746;28;20042;-85
2023/03/24 12:19:56;;;;;;;9.10;2.42;;;15.00;99.90;;;;;;4993555;28;20485;-85
2023/03/24 12:22:49;;;;;;;10.93;3.10;;;15.10;99.90;;;;;;4991828;28;20048;-85
2023/03/24 12:25:28;;;;;;;9.65;2.47;;;15.30;99.90;;;;;;4979175;28;20048;-83
2023/03/24 12:28:32;;;;;;;6.97;2.38;;;15.30;99.90;;;;;;4974956;28;20041;-85
2023/03/24 12:31:07;;;;;;;16.40;3.00;;;15.40;99.90;;;;;;4972948;28;20110;-85
2023/03/24 12:33:52;;;;;;;13.68;3.88;;;15.40;99.90;;;;;;4989002;28;20061;-82
2023/03/24 12:36:18;;;;;;;12.88;3.13;;;15.30;99.90;;;;;;4969402;28;20049;-82
2023/03/24 12:39:10;;;;;;;11.52;2.60;;;15.20;99.90;;;;;;5013422;28;20042;-84
2023/03/24 12:41:57;;;;;;;9.73;2.47;;;15.00;99.90;;;;;;5008689;28;20060;-83
2023/03/24 12:44:30;;;;;;;7.03;2.08;;;14.60;99.90;;;;;;4982088;28;20386;-85
2023/03/24 12:47:11;;;;;;;8.43;2.13;;;14.60;99.90;;;;;;4982576;28;20345;-84
2023/03/24 12:50:15;;;;;;;9.95;2.17;;;14.50;99.90;;;;;;4999255;28;20517;-84
2023/03/24 12:53:11;;;;;;;10.02;2.47;;;14.60;99.90;;;;;;4980942;28;20045;-83
2023/03/24 12:55:49;;;;;;;9.13;2.33;;;14.80;99.90;;;;;;4980045;28;20508;-83
2023/03/24 12:58:38;;;;;;;9.10;2.35;;;15.00;99.90;;;;;;4999481;28;20469;-83
2023/03/24 13:01:23;;;;;;;7.57;2.15;;;15.30;99.90;;;;;;4980197;28;20706;-84
2023/03/24 13:04:19;;;;;;;8.57;2.30;;;15.20;99.90;;;;;;5005171;28;20105;-85
2023/03/24 13:07:05;;;;;;;7.63;1.70;;;14.90;99.90;;;;;;4980296;28;20048;-85
2023/03/24 13:09:42;;;;;;;19.85;2.65;;;14.50;99.90;;;;;;4993875;28;20588;-86
2023/03/24 13:12:46;;;;;;;9.00;2.05;;;14.30;99.90;;;;;;4996971;28;20052;-86
2023/03/24 13:15:12;;;;;;;8.05;2.13;;;14.20;99.90;;;;;;4993666;28;20061;-84
2023/03/24 13:17:55;;;;;;;10.70;2.42;;;14.30;99.90;;;;;;4993498;28;20146;-85
2023/03/24 13:20:39;;;;;;;9.30;2.45;;;14.50;99.90;;;;;;4993581;28;20049;-85
2023/03/24 13:23:48;;;;;;;12.70;2.70;;;14.50;99.90;;;;;;4994385;28;20212;-85
2023/03/24 13:26:20;;;;;;;7.43;2.10;;;14.40;99.90;;;;;;4987688;28;20061;-84
2023/03/24 13:29:04;;;;;;;9.65;2.70;;;14.50;99.90;;;;;;4977239;28;20453;-84
2023/03/24 13:31:53;;;;;;;11.05;2.50;;;14.60;99.90;;;;;;4996928;28;20659;-83
2023/03/24 13:34:30;;;;;;;8.85;2.70;;;14.40;99.90;;;;;;4998023;28;20054;-85